Time;durP1;ratioP1;P1;durP2;ratioP2;P2;SDS_P1;SDS_P2;PMS_P1;PMS_P2;Temp;Humidity;BMP_temperature;BMP_pressure;BME280_temperature;BME280_humidity;BME280_pressure;Samples;Min_cycle;Max_cycle;Signal;HPM_P1;HPM_P2
2023/07/07 00:01:45;;;;;;;6.90;4.60;;;;;;;23.25;nan;62035.53;5031180;28;20237;-64
2023/07/07 00:04:10;;;;;;;8.65;4.22;;;;;;;23.47;nan;62159.72;5030770;28;20714;-62
2023/07/07 00:06:36;;;;;;;7.03;4.60;;;;;;;23.27;nan;62233.38;5031304;28;20203;-62
2023/07/07 00:09:03;;;;;;;7.40;4.78;;;;;;;23.54;nan;62123.31;5034031;28;20604;-63
2023/07/07 00:11:28;;;;;;;7.55;4.28;;;;;;;23.28;nan;62073.41;5034764;28;20172;-63
2023/07/07 00:13:54;;;;;;;7.53;4.43;;;;;;;23.27;nan;62058.66;5034966;28;20175;-63
2023/07/07 00:16:27;;;;;;;6.88;4.30;;;;;;;23.38;nan;62034.09;5034986;28;20211;-63
2023/07/07 00:18:54;;;;;;;8.10;4.90;;;;;;;23.17;nan;62013.38;5034493;28;20207;-62
2023/07/07 00:21:24;;;;;;;6.82;4.35;;;;;;;23.37;nan;62043.97;5034592;28;20171;-63
2023/07/07 00:23:54;;;;;;;7.55;4.60;;;;;;;23.04;nan;61964.72;5034914;28;20225;-63
2023/07/07 00:26:20;;;;;;;7.97;4.15;;;;;;;23.05;nan;62122.81;5034900;28;20167;-63
2023/07/07 00:28:46;;;;;;;6.22;4.00;;;;;;;23.22;nan;62086.84;5034156;28;20226;-63
2023/07/07 00:31:11;;;;;;;5.68;3.95;;;;;;;22.86;nan;61984.47;5034355;28;20191;-63
2023/07/07 00:33:37;;;;;;;6.57;4.07;;;;;;;22.73;nan;61912.38;5034712;28;20175;-63
2023/07/07 00:36:02;;;;;;;7.80;4.03;;;;;;;22.90;nan;61993.66;5034719;28;20199;-63
2023/07/07 00:38:28;;;;;;;6.97;4.25;;;;;;;22.70;nan;62200.75;5034804;28;20179;-63
2023/07/07 00:40:53;;;;;;;7.60;4.10;;;;;;;22.71;nan;62061.19;5034442;28;20171;-63
2023/07/07 00:43:20;;;;;;;6.20;4.18;;;;;;;22.63;nan;61942.09;5034319;28;20202;-63
2023/07/07 00:45:46;;;;;;;7.53;4.20;;;;;;;22.54;nan;62135.59;5033753;28;20175;-64
2023/07/07 00:48:14;;;;;;;6.75;4.00;;;;;;;22.67;nan;62076.88;5034242;28;20361;-63
2023/07/07 00:50:49;;;;;;;8.07;4.15;;;;;;;22.67;nan;62069.06;5034462;28;20171;-63
2023/07/07 00:53:14;;;;;;;5.85;4.15;;;;;;;22.72;nan;61616.28;5034157;28;20170;-62
2023/07/07 00:55:44;;;;;;;5.72;3.90;;;;;;;22.44;nan;61921.06;5049366;28;20175;-63
2023/07/07 00:58:16;;;;;;;8.95;4.20;;;;;;;22.57;nan;61971.72;5033554;28;20171;-63
2023/07/07 01:00:46;;;;;;;7.35;3.90;;;;;;;22.30;nan;61876.50;5034379;28;20250;-63
2023/07/07 01:03:19;;;;;;;6.28;4.10;;;;;;;22.47;nan;61937.50;5034240;28;20211;-63
2023/07/07 01:05:46;;;;;;;6.75;4.03;;;;;;;22.56;nan;61997.22;5032648;28;20201;-63
2023/07/07 01:08:12;;;;;;;6.80;4.18;;;;;;;22.42;nan;62013.13;5033087;28;20195;-63
2023/07/07 01:10:37;;;;;;;6.47;4.03;;;;;;;22.39;nan;62017.50;5033079;28;20639;-64
2023/07/07 01:13:04;;;;;;;6.10;4.43;;;;;;;22.64;nan;62039.63;5033306;28;20642;-63
2023/07/07 01:15:35;;;;;;;7.05;4.53;;;;;;;22.43;nan;61964.75;5032064;28;20272;-63
2023/07/07 01:18:18;;;;;;;7.32;4.10;;;;;;;22.80;nan;61992.72;5033402;28;20195;-63
2023/07/07 01:21:01;;;;;;;7.85;4.60;;;;;;;22.84;nan;62012.91;5031890;28;20221;-63
2023/07/07 01:23:51;;;;;;;7.60;4.40;;;;;;;22.75;nan;62047.50;5032951;28;20254;-63
2023/07/07 01:26:27;;;;;;;7.28;4.45;;;;;;;22.85;nan;61993.19;5033066;28;20640;-62
2023/07/07 01:29:07;;;;;;;5.82;3.78;;;;;;;22.79;nan;62010.41;5033010;28;20548;-63
2023/07/07 01:31:40;;;;;;;6.47;4.28;;;;;;;22.88;nan;62004.44;5031303;28;20184;-63
2023/07/07 01:34:08;;;;;;;6.43;4.03;;;;;;;22.55;nan;62024.75;5033093;28;20163;-63
2023/07/07 01:36:34;;;;;;;7.00;4.63;;;;;;;22.56;nan;61885.22;5032218;28;20186;-63
2023/07/07 01:38:59;;;;;;;6.82;3.85;;;;;;;22.60;nan;61980.38;5032245;28;20168;-63
2023/07/07 01:41:32;;;;;;;7.72;4.60;;;;;;;22.93;nan;62002.31;5033065;28;20206;-62
2023/07/07 01:44:08;;;;;;;6.85;4.32;;;;;;;22.68;nan;62296.88;5032907;28;20162;-63
2023/07/07 01:46:54;;;;;;;8.32;5.05;;;;;;;22.96;nan;62089.09;5033462;28;20198;-62
2023/07/07 01:49:32;;;;;;;6.80;4.25;;;;;;;22.64;nan;61993.31;5032814;28;20682;-63
2023/07/07 01:52:01;;;;;;;6.35;4.32;;;;;;;22.81;nan;62270.63;5033027;28;20242;-63
2023/07/07 01:54:31;;;;;;;7.25;4.13;;;;;;;22.86;nan;62088.72;5032443;28;20225;-63
2023/07/07 01:56:57;;;;;;;8.02;4.80;;;;;;;22.72;nan;62301.47;5032541;28;20195;-63
2023/07/07 01:59:24;;;;;;;8.05;4.47;;;;;;;21.83;nan;61943.34;5032997;28;20184;-63
2023/07/07 02:01:49;;;;;;;6.45;4.38;;;;;;;22.67;nan;62238.97;5033093;28;20171;-63
2023/07/07 02:04:15;;;;;;;7.68;4.70;;;;;;;22.39;nan;62051.34;5033027;28;20762;-62
2023/07/07 02:06:40;;;;;;;6.40;4.20;;;;;;;22.52;nan;62067.63;5032558;28;20171;-62
2023/07/07 02:09:06;;;;;;;7.25;4.32;;;;;;;22.57;nan;61935.25;5032528;28;20195;-63
2023/07/07 02:11:32;;;;;;;8.18;4.72;;;;;;;22.55;nan;61901.75;5033163;28;20182;-63
2023/07/07 02:13:57;;;;;;;7.95;5.22;;;;;;;22.29;nan;61842.09;5032900;28;20172;-62
2023/07/07 02:16:22;;;;;;;6.60;4.45;;;;;;;22.31;nan;61917.28;5032731;28;20198;-63
2023/07/07 02:18:48;;;;;;;7.85;4.53;;;;;;;22.41;nan;62217.13;5032477;28;20555;-63
2023/07/07 02:21:14;;;;;;;7.40;4.57;;;;;;;22.40;nan;61901.47;5032357;28;20262;-63
2023/07/07 02:23:39;;;;;;;7.95;4.43;;;;;;;22.63;nan;61994.75;5032291;28;20179;-63
2023/07/07 02:26:05;;;;;;;9.93;4.43;;;;;;;22.63;nan;61973.94;5032896;28;20274;-62
2023/07/07 02:28:30;;;;;;;8.38;4.68;;;;;;;22.62;nan;61998.25;5032138;28;20214;-63
2023/07/07 02:30:56;;;;;;;8.35;5.03;;;;;;;22.68;nan;62062.97;5031799;28;20547;-62
2023/07/07 02:33:30;;;;;;;8.55;4.80;;;;;;;22.75;nan;61971.94;5032307;28;20194;-63
2023/07/07 02:35:59;;;;;;;8.20;4.95;;;;;;;22.70;nan;61953.25;5032113;28;20224;-63
2023/07/07 02:38:24;;;;;;;9.10;4.60;;;;;;;22.78;nan;61959.75;5032255;28;20249;-62
2023/07/07 02:40:50;;;;;;;9.98;5.38;;;;;;;22.85;nan;62019.25;5032549;28;20589;-63
2023/07/07 02:43:15;;;;;;;6.70;4.45;;;;;;;22.48;nan;62129.31;5032125;28;20638;-63
2023/07/07 02:45:43;;;;;;;7.47;4.82;;;;;;;22.62;nan;61988.41;5032160;28;20175;-62
2023/07/07 02:48:09;;;;;;;7.00;4.03;;;;;;;22.39;nan;61908.13;5031946;28;20198;-64
2023/07/07 02:50:34;;;;;;;7.75;4.72;;;;;;;22.67;nan;61972.69;5032306;28;20178;-63
2023/07/07 02:52:59;;;;;;;6.50;4.55;;;;;;;22.39;nan;61955.00;5032281;28;20210;-62
2023/07/07 02:55:25;;;;;;;7.50;4.38;;;;;;;22.64;nan;61930.78;5032029;28;20301;-63
2023/07/07 02:57:50;;;;;;;7.80;4.82;;;;;;;22.61;nan;61953.41;5032225;28;20228;-63
2023/07/07 03:00:16;;;;;;;6.22;4.10;;;;;;;22.67;nan;61959.66;5031908;28;20646;-63
2023/07/07 03:02:43;;;;;;;8.75;4.72;;;;;;;22.70;nan;61957.91;5032050;28;20222;-63
2023/07/07 03:05:08;;;;;;;7.65;4.93;;;;;;;22.76;nan;61988.16;5031630;28;20184;-63
2023/07/07 03:07:34;;;;;;;9.30;4.82;;;;;;;22.87;nan;61977.22;5031118;28;20183;-63
2023/07/07 03:09:59;;;;;;;10.15;4.68;;;;;;;22.89;nan;62008.16;5031907;28;20181;-63
2023/07/07 03:12:26;;;;;;;6.63;4.32;;;;;;;23.05;nan;62049.84;5031493;28;20210;-64
2023/07/07 03:14:54;;;;;;;7.28;5.18;;;;;;;23.47;nan;62031.31;5031723;28;20175;-63
2023/07/07 03:17:20;;;;;;;8.18;4.82;;;;;;;23.61;nan;62284.69;5031829;28;20183;-62
2023/07/07 03:19:45;;;;;;;8.13;4.97;;;;;;;23.74;nan;62169.63;5031867;28;20194;-62
2023/07/07 03:22:11;;;;;;;11.00;4.95;;;;;;;23.74;nan;62078.28;5031409;28;20258;-63
2023/07/07 03:24:36;;;;;;;8.02;4.68;;;;;;;22.98;nan;62122.09;5032359;28;20174;-63
2023/07/07 03:27:02;;;;;;;8.05;4.93;;;;;;;24.16;nan;62151.09;5031614;28;20199;-62
2023/07/07 03:29:27;;;;;;;6.95;4.75;;;;;;;24.36;nan;62369.25;5032040;28;20199;-63
2023/07/07 03:31:53;;;;;;;7.35;4.55;;;;;;;25.20;nan;62438.00;5031481;28;20182;-63
2023/07/07 03:34:18;;;;;;;7.90;4.75;;;;;;;25.78;nan;62380.72;5031969;28;20188;-63
2023/07/07 03:36:44;;;;;;;7.47;4.50;;;;;;;26.13;nan;62519.66;5030321;28;20176;-62
2023/07/07 03:39:09;;;;;;;8.18;4.65;;;;;;;26.85;nan;62653.41;5031941;28;20683;-63
2023/07/07 03:41:35;;;;;;;9.18;4.50;;;;;;;27.68;nan;62627.78;5031553;28;20660;-63
2023/07/07 03:44:00;;;;;;;7.72;4.63;;;;;;;28.16;nan;63033.88;5034438;28;20198;-63
2023/07/07 03:46:27;;;;;;;8.82;4.35;;;;;;;28.66;nan;63030.38;5035404;28;20309;-63
2023/07/07 03:48:54;;;;;;;6.85;4.38;;;;;;;29.50;nan;62820.38;5035266;28;20682;-64
2023/07/07 03:51:20;;;;;;;6.25;4.22;;;;;;;;;;5035254;28;20282;-62
2023/07/07 03:53:47;;;;;;;7.55;4.55;;;;;;;30.75;nan;63130.50;5035471;28;20677;-64
2023/07/07 03:56:13;;;;;;;7.10;4.63;;;;;;;30.92;nan;63198.16;5035585;28;20202;-62
2023/07/07 03:58:38;;;;;;;7.10;4.60;;;;;;;31.34;nan;63311.50;5034971;28;20182;-63
2023/07/07 04:01:06;;;;;;;7.85;4.30;;;;;;;31.92;nan;63502.16;5035070;28;20167;-63
2023/07/07 04:03:32;;;;;;;7.22;4.20;;;;;;;30.49;nan;63241.56;5034487;28;20215;-63
2023/07/07 04:05:59;;;;;;;7.13;4.05;;;;;;;31.11;nan;63230.06;5035033;28;20197;-63
2023/07/07 04:08:25;;;;;;;7.10;4.03;;;;;;;31.10;nan;63245.34;5034849;28;20195;-62
2023/07/07 04:10:59;;;;;;;7.82;4.00;;;;;;;31.25;nan;63291.13;5033722;28;20235;-63
2023/07/07 04:13:25;;;;;;;6.32;4.05;;;;;;;32.35;nan;63395.19;5034845;28;20175;-63
2023/07/07 04:16:11;;;;;;;8.52;4.35;;;;;;;32.48;nan;63494.31;5035181;28;20337;-63
2023/07/07 04:18:37;;;;;;;5.70;3.78;;;;;;;33.03;nan;63552.63;5035096;28;20159;-63
2023/07/07 04:21:06;;;;;;;7.20;4.20;;;;;;;31.27;nan;63124.31;5034156;28;20190;-62
2023/07/07 04:23:33;;;;;;;7.05;4.32;;;;;;;32.10;nan;63324.00;5034606;28;20179;-64
2023/07/07 04:25:58;;;;;;;8.13;4.22;;;;;;;32.33;nan;63417.25;5034394;28;20175;-62
2023/07/07 04:28:24;;;;;;;6.13;4.13;;;;;;;31.84;nan;63321.03;5034595;28;20193;-62
2023/07/07 04:30:55;;;;;;;5.25;3.53;;;;;;;31.93;nan;63371.06;5034249;28;20190;-63
2023/07/07 04:33:20;;;;;;;5.57;3.88;;;;;;;31.74;nan;63283.63;5034758;28;20158;-62
2023/07/07 04:35:54;;;;;;;6.85;4.45;;;;;;;31.77;nan;63355.81;5034502;28;20179;-63
2023/07/07 04:38:22;;;;;;;5.57;4.10;;;;;;;32.20;nan;63452.53;5033127;28;20717;-63
2023/07/07 04:40:47;;;;;;;5.50;3.83;;;;;;;32.38;nan;63404.50;5033682;28;20183;-63
2023/07/07 04:43:13;;;;;;;5.75;3.90;;;;;;;30.84;nan;63402.81;5033707;28;20229;-63
2023/07/07 04:45:38;;;;;;;6.13;4.22;;;;;;;30.94;nan;63216.31;5033890;28;20178;-65
2023/07/07 04:48:04;;;;;;;7.07;3.78;;;;;;;31.01;nan;63237.03;5049406;28;20195;-63
2023/07/07 04:50:33;;;;;;;4.38;3.35;;;;;;;30.65;nan;63199.31;5033788;28;20174;-63
2023/07/07 04:52:58;;;;;;;6.43;3.60;;;;;;;30.19;nan;63289.31;5033569;28;20666;-64
2023/07/07 04:55:23;;;;;;;6.22;3.85;;;;;;;29.94;nan;63080.59;5033790;28;20189;-63
2023/07/07 04:57:49;;;;;;;10.07;4.38;;;;;;;29.50;nan;62952.09;5033380;28;20206;-63
2023/07/07 05:00:14;;;;;;;4.57;3.30;;;;;;;28.94;nan;62807.31;5033610;28;20174;-64
2023/07/07 05:02:40;;;;;;;10.13;4.55;;;;;;;29.20;nan;62978.16;5027000;28;20218;-64
2023/07/07 05:05:06;;;;;;;6.72;4.07;;;;;;;29.35;nan;62932.22;5022329;28;20195;-63
2023/07/07 05:07:31;;;;;;;6.82;4.07;;;;;;;29.57;nan;62930.56;5024177;28;20194;-61
2023/07/07 05:09:57;;;;;;;5.70;3.72;;;;;;;29.37;nan;62921.91;5021937;28;20164;-63
2023/07/07 05:12:22;;;;;;;5.68;4.00;;;;;;;29.28;nan;62708.22;5021721;28;20246;-63
2023/07/07 05:14:47;;;;;;;5.97;4.20;;;;;;;29.78;nan;62992.16;5024218;28;20163;-63
2023/07/07 05:17:13;;;;;;;5.28;3.83;;;;;;;29.54;nan;63011.44;5022592;28;20229;-62
2023/07/07 05:19:38;;;;;;;8.73;5.07;;;;;;;29.62;nan;62915.25;5023325;28;20181;-63
2023/07/07 05:22:04;;;;;;;6.35;4.07;;;;;;;29.56;nan;62972.16;5026805;28;20549;-64
2023/07/07 05:24:30;;;;;;;6.38;3.88;;;;;;;29.48;nan;62962.38;5033328;28;20174;-61
2023/07/07 05:26:55;;;;;;;5.20;3.67;;;;;;;29.52;nan;63033.41;5033663;28;20190;-63
2023/07/07 05:29:22;;;;;;;6.72;4.35;;;;;;;29.74;nan;62924.31;5033432;28;20198;-61
2023/07/07 05:31:48;;;;;;;5.43;3.85;;;;;;;30.27;nan;63021.00;5032126;28;20202;-65
2023/07/07 05:34:14;;;;;;;6.40;4.55;;;;;;;29.51;nan;62923.69;5032861;28;20206;-64
2023/07/07 05:36:39;;;;;;;7.25;3.83;;;;;;;29.68;nan;62935.31;5033016;28;20167;-63
2023/07/07 05:39:06;;;;;;;6.00;4.00;;;;;;;30.36;nan;63072.97;5032806;28;20170;-63
2023/07/07 05:41:32;;;;;;;5.70;3.80;;;;;;;30.49;nan;63146.00;5032230;28;20189;-61
2023/07/07 05:43:57;;;;;;;5.38;3.67;;;;;;;30.45;nan;63057.53;5032659;28;20175;-62
2023/07/07 05:46:23;;;;;;;6.43;4.25;;;;;;;30.13;nan;63044.47;5029207;28;20178;-59
2023/07/07 05:48:48;;;;;;;5.93;3.95;;;;;;;30.04;nan;63063.69;5032396;28;20630;-62
2023/07/07 05:51:19;;;;;;;6.55;3.58;;;;;;;28.87;nan;62925.59;5032457;28;20265;-63
2023/07/07 05:53:45;;;;;;;5.03;3.60;;;;;;;28.60;nan;62810.38;5032355;28;20166;-62
2023/07/07 05:56:20;;;;;;;5.97;3.97;;;;;;;28.35;nan;62729.09;5031792;28;20244;-60
2023/07/07 05:58:46;;;;;;;5.97;4.28;;;;;;;28.40;nan;62716.44;5032344;28;20170;-59
2023/07/07 06:01:13;;;;;;;6.35;4.05;;;;;;;28.27;nan;62786.25;5032045;28;20178;-64
2023/07/07 06:03:40;;;;;;;6.88;4.60;;;;;;;28.23;nan;62778.44;5032392;28;20238;-64
2023/07/07 06:06:06;;;;;;;7.20;4.40;;;;;;;27.95;nan;62616.09;5031517;28;20167;-64
2023/07/07 06:08:32;;;;;;;6.22;4.05;;;;;;;27.82;nan;62611.72;5032139;28;20674;-62
2023/07/07 06:10:57;;;;;;;5.85;4.20;;;;;;;27.29;nan;62574.66;5032031;28;20178;-64
2023/07/07 06:13:24;;;;;;;5.30;3.90;;;;;;;27.97;nan;62962.63;5032005;28;20175;-63
2023/07/07 06:15:51;;;;;;;6.63;4.25;;;;;;;27.73;nan;62651.31;5021861;28;20184;-61
2023/07/07 06:18:16;;;;;;;7.60;4.40;;;;;;;27.70;nan;62752.94;5023409;28;20175;-62
2023/07/07 06:20:47;;;;;;;7.32;4.25;;;;;;;27.96;nan;62663.97;5032356;28;20172;-64
2023/07/07 06:23:12;;;;;;;7.13;4.35;;;;;;;27.35;nan;62736.41;5031932;28;20170;-62
2023/07/07 06:25:38;;;;;;;6.30;4.25;;;;;;;27.92;nan;62702.00;5031470;28;20269;-65
2023/07/07 06:28:03;;;;;;;7.53;4.50;;;;;;;28.31;nan;62798.13;5031382;28;20198;-65
2023/07/07 06:30:29;;;;;;;6.03;4.22;;;;;;;28.25;nan;62728.19;5031366;28;20254;-65
2023/07/07 06:32:54;;;;;;;6.60;4.15;;;;;;;28.40;nan;62755.88;5031570;28;20180;-62
2023/07/07 06:35:20;;;;;;;6.45;4.38;;;;;;;28.29;nan;62740.66;5031524;28;20274;-65
2023/07/07 06:37:46;;;;;;;7.20;4.55;;;;;;;28.52;nan;62817.00;5030733;28;20233;-63
2023/07/07 06:40:12;;;;;;;6.18;4.00;;;;;;;28.77;nan;62861.47;5031095;28;20171;-59
2023/07/07 06:42:38;;;;;;;7.45;4.50;;;;;;;29.13;nan;62864.81;5031513;28;20173;-61
2023/07/07 06:45:03;;;;;;;7.15;4.90;;;;;;;28.78;nan;62831.06;5031275;28;20162;-61
2023/07/07 06:47:29;;;;;;;6.43;4.63;;;;;;;28.89;nan;62777.31;5030946;28;20166;-64
2023/07/07 06:49:54;;;;;;;7.30;4.60;;;;;;;29.01;nan;62920.03;5031613;28;20608;-67
2023/07/07 06:52:19;;;;;;;6.75;4.53;;;;;;;29.10;nan;62875.09;5030001;28;20191;-64
2023/07/07 06:54:45;;;;;;;6.80;4.35;;;;;;;28.82;nan;62816.66;5031093;28;20648;-65
2023/07/07 06:57:10;;;;;;;6.10;4.60;;;;;;;28.84;nan;62842.63;5031844;28;20167;-64
2023/07/07 06:59:36;;;;;;;7.50;4.78;;;;;;;29.56;nan;62951.06;5030644;28;20179;-66
2023/07/07 07:02:01;;;;;;;7.10;3.88;;;;;;;29.42;nan;63141.03;5031631;28;20167;-66
2023/07/07 07:04:28;;;;;;;6.35;4.60;;;;;;;29.21;nan;62895.06;5031138;28;20181;-62
2023/07/07 07:06:53;;;;;;;7.38;4.90;;;;;;;29.62;nan;62973.78;5030517;28;20174;-61
2023/07/07 07:09:18;;;;;;;7.30;4.50;;;;;;;29.71;nan;63023.66;5031168;28;20195;-61
2023/07/07 07:11:44;;;;;;;7.38;4.35;;;;;;;29.51;nan;62976.94;5031165;28;20184;-64
2023/07/07 07:14:09;;;;;;;7.88;4.85;;;;;;;29.79;nan;63005.91;5031005;28;20705;-62
2023/07/07 07:16:34;;;;;;;6.60;4.78;;;;;;;29.94;nan;63002.09;5031658;28;20262;-62
2023/07/07 07:19:00;;;;;;;8.90;5.38;;;;;;;29.88;nan;62960.31;5035257;28;20546;-65
2023/07/07 07:21:25;;;;;;;7.75;4.85;;;;;;;30.16;nan;63035.28;5036095;28;20352;-64
2023/07/07 07:23:51;;;;;;;7.72;4.72;;;;;;;30.25;nan;63068.81;5036151;28;20610;-62
2023/07/07 07:26:17;;;;;;;6.75;4.75;;;;;;;30.26;nan;63077.88;5035940;28;20208;-60
2023/07/07 07:28:43;;;;;;;8.30;5.10;;;;;;;29.93;nan;63035.22;5035232;28;20194;-62
2023/07/07 07:31:08;;;;;;;7.70;4.85;;;;;;;29.80;nan;63110.44;5035671;28;20178;-60
2023/07/07 07:33:33;;;;;;;6.22;4.70;;;;;;;29.84;nan;63062.31;5035248;28;20171;-61
2023/07/07 07:35:59;;;;;;;6.43;4.78;;;;;;;30.06;nan;63010.63;5035056;28;20209;-64
2023/07/07 07:38:24;;;;;;;5.70;4.13;;;;;;;30.23;nan;63132.47;5035143;28;20171;-63
2023/07/07 07:40:51;;;;;;;8.45;5.00;;;;;;;30.23;nan;63016.41;5036054;28;20258;-62
2023/07/07 07:43:16;;;;;;;8.02;4.60;;;;;;;30.26;nan;63023.06;5035303;28;20185;-62
2023/07/07 07:45:41;;;;;;;7.57;4.88;;;;;;;30.26;nan;63017.78;5035517;28;20182;-62
2023/07/07 07:48:07;;;;;;;7.72;4.70;;;;;;;30.40;nan;63074.94;5035213;28;20194;-64
2023/07/07 07:50:33;;;;;;;7.05;4.50;;;;;;;30.66;nan;63116.00;5035230;28;20171;-61
2023/07/07 07:52:59;;;;;;;7.65;5.22;;;;;;;30.67;nan;63108.66;5034692;28;20183;-63
2023/07/07 07:55:25;;;;;;;9.40;4.97;;;;;;;30.80;nan;63197.53;5034996;28;20171;-64
2023/07/07 07:57:51;;;;;;;7.38;4.70;;;;;;;30.70;nan;63381.38;5035023;28;20167;-63
2023/07/07 08:00:17;;;;;;;8.00;4.75;;;;;;;30.29;nan;63012.75;5034966;28;20167;-65
2023/07/07 08:02:43;;;;;;;8.48;4.68;;;;;;;30.78;nan;63121.31;5034827;28;20227;-62
2023/07/07 08:05:09;;;;;;;6.80;4.68;;;;;;;30.75;nan;63098.81;5034904;28;20174;-64
2023/07/07 08:07:34;;;;;;;6.25;4.40;;;;;;;30.93;nan;63449.59;5034660;28;20232;-63
2023/07/07 08:10:00;;;;;;;6.72;4.75;;;;;;;31.14;nan;63215.03;5034695;28;20583;-62
2023/07/07 08:12:25;;;;;;;6.13;4.38;;;;;;;31.23;nan;63243.91;5034699;28;20266;-61
2023/07/07 08:14:51;;;;;;;7.22;4.63;;;;;;;31.04;nan;63285.97;5034766;28;20654;-61
2023/07/07 08:17:17;;;;;;;7.70;4.68;;;;;;;31.15;nan;63398.47;5034909;28;20174;-62
2023/07/07 08:19:44;;;;;;;6.43;4.75;;;;;;;31.34;nan;63168.81;5035422;28;20171;-63
2023/07/07 08:22:24;;;;;;;6.95;4.45;;;;;;;31.70;nan;63265.78;5034674;28;20178;-61
2023/07/07 08:24:54;;;;;;;7.18;4.85;;;;;;;31.22;nan;63203.09;5033483;28;20545;-65
2023/07/07 08:27:21;;;;;;;8.93;4.43;;;;;;;31.24;nan;63199.56;5034820;28;20179;-61
2023/07/07 08:29:46;;;;;;;8.07;4.78;;;;;;;30.92;nan;63174.41;5034147;28;20237;-62
2023/07/07 08:32:14;;;;;;;7.45;4.65;;;;;;;31.36;nan;63195.47;5035001;28;20206;-64
2023/07/07 08:34:39;;;;;;;7.72;5.10;;;;;;;31.50;nan;63237.44;5034188;28;20183;-60
2023/07/07 08:37:05;;;;;;;8.05;5.07;;;;;;;31.49;nan;63321.44;5034350;28;20233;-65
2023/07/07 08:39:31;;;;;;;8.27;4.45;;;;;;;31.40;nan;63286.72;5034572;28;20206;-63
2023/07/07 08:42:06;;;;;;;5.82;4.40;;;;;;;31.07;nan;63254.53;5034565;28;20198;-64
2023/07/07 08:44:34;;;;;;;7.40;4.78;;;;;;;31.05;nan;63262.78;5034477;28;20185;-64
2023/07/07 08:47:27;;;;;;;6.75;4.50;;;;;;;31.43;nan;63269.59;5033829;28;20170;-64
2023/07/07 08:50:07;;;;;;;6.93;4.47;;;;;;;31.17;nan;63202.63;5034491;28;20202;-64
2023/07/07 08:52:35;;;;;;;7.38;4.45;;;;;;;31.16;nan;63262.25;5034506;28;20171;-62
2023/07/07 08:55:04;;;;;;;7.38;5.07;;;;;;;30.76;nan;63150.13;5034163;28;20178;-62
2023/07/07 08:57:37;;;;;;;7.45;5.05;;;;;;;31.08;nan;63158.50;5033597;28;20228;-60
2023/07/07 09:00:22;;;;;;;6.78;4.55;;;;;;;31.19;nan;63223.44;5033221;28;20202;-62
2023/07/07 09:02:57;;;;;;;7.05;4.88;;;;;;;31.32;nan;63259.56;5033625;28;20226;-62
2023/07/07 09:05:31;;;;;;;8.65;4.88;;;;;;;31.42;nan;63283.72;5033582;28;20205;-61
2023/07/07 09:08:12;;;;;;;6.78;4.75;;;;;;;31.58;nan;63308.03;5033521;28;20186;-61
2023/07/07 09:10:45;;;;;;;7.38;4.47;;;;;;;31.37;nan;63219.81;5033577;28;20254;-59
2023/07/07 09:13:29;;;;;;;6.95;4.70;;;;;;;31.87;nan;63266.28;5033674;28;20186;-60
2023/07/07 09:16:01;;;;;;;6.97;4.60;;;;;;;31.95;nan;63440.06;5033356;28;20182;-64
2023/07/07 09:18:31;;;;;;;6.82;4.55;;;;;;;31.68;nan;63299.91;5033669;28;20163;-63
2023/07/07 09:21:00;;;;;;;6.70;4.47;;;;;;;31.93;nan;63294.38;5033702;28;20655;-61
2023/07/07 09:23:30;;;;;;;6.07;4.25;;;;;;;31.78;nan;63520.94;5033502;28;20182;-64
2023/07/07 09:26:08;;;;;;;6.97;4.65;;;;;;;31.81;nan;63346.66;5033393;28;20649;-65
2023/07/07 09:28:42;;;;;;;6.72;4.70;;;;;;;32.19;nan;63382.00;5033062;28;20198;-61
2023/07/07 09:31:51;;;;;;;5.82;4.22;;;;;;;31.97;nan;63296.91;5033181;28;20267;-62
2023/07/07 09:34:16;;;;;;;8.05;4.18;;;;;;;31.97;nan;63404.78;5033189;28;20220;-63
2023/07/07 09:36:42;;;;;;;6.20;4.28;;;;;;;32.19;nan;63430.22;5033232;28;20650;-62
2023/07/07 09:39:07;;;;;;;6.32;4.20;;;;;;;32.44;nan;63447.94;5032854;28;20179;-61
2023/07/07 09:41:43;;;;;;;7.03;4.50;;;;;;;32.37;nan;63421.88;5032044;28;20252;-61
2023/07/07 09:44:16;;;;;;;8.45;4.18;;;;;;;32.77;nan;63474.91;5033205;28;20165;-62
2023/07/07 09:47:12;;;;;;;7.43;4.07;;;;;;;32.66;nan;63475.41;5032946;28;20175;-62
2023/07/07 09:49:47;;;;;;;12.68;4.72;;;;;;;32.81;nan;63395.34;5032847;28;20261;-64
2023/07/07 09:52:27;;;;;;;6.25;4.35;;;;;;;33.05;nan;63592.03;5033214;28;20162;-60
2023/07/07 09:54:54;;;;;;;6.05;4.22;;;;;;;32.81;nan;63432.41;5031797;28;20268;-62
2023/07/07 09:57:29;;;;;;;6.63;4.20;;;;;;;32.74;nan;63509.06;5032339;28;20202;-62
2023/07/07 09:59:58;;;;;;;6.75;4.38;;;;;;;32.99;nan;63529.44;5032150;28;20684;-63
2023/07/07 10:02:25;;;;;;;5.32;3.80;;;;;;;33.17;nan;63579.44;5032448;28;20657;-61
2023/07/07 10:05:05;;;;;;;5.93;3.85;;;;;;;33.16;nan;63498.75;5032243;28;20171;-65
2023/07/07 10:07:35;;;;;;;5.75;3.95;;;;;;;33.44;nan;63590.94;5032492;28;20162;-62
2023/07/07 10:10:06;;;;;;;5.65;3.72;;;;;;;33.39;nan;63577.78;5032516;28;20171;-63
2023/07/07 10:12:31;;;;;;;7.85;4.68;;;;;;;33.19;nan;63509.63;5031930;28;20178;-64
2023/07/07 10:14:57;;;;;;;5.45;4.00;;;;;;;33.67;nan;63665.31;5032037;28;20213;-64
2023/07/07 10:17:50;;;;;;;5.57;3.85;;;;;;;33.70;nan;63684.72;5032130;28;20552;-64
2023/07/07 10:20:16;;;;;;;6.30;4.10;;;;;;;33.49;nan;63578.16;5032094;28;20181;-63
2023/07/07 10:22:42;;;;;;;5.90;3.75;;;;;;;33.38;nan;63584.59;5031835;28;20179;-64
2023/07/07 10:25:12;;;;;;;5.75;3.80;;;;;;;33.49;nan;63645.03;5031842;28;20608;-63
2023/07/07 10:27:38;;;;;;;5.88;4.20;;;;;;;33.54;nan;63615.78;5032251;28;20167;-62
2023/07/07 10:30:05;;;;;;;5.13;3.83;;;;;;;33.43;nan;63703.81;5032505;28;20181;-62
2023/07/07 10:32:31;;;;;;;6.63;4.10;;;;;;;33.42;nan;63623.69;5032198;28;20185;-63
2023/07/07 10:34:58;;;;;;;5.28;3.75;;;;;;;33.70;nan;63809.97;5032319;28;20621;-61
2023/07/07 10:37:31;;;;;;;5.03;3.70;;;;;;;33.82;nan;63737.81;5031791;28;20175;-64
2023/07/07 10:40:03;;;;;;;5.97;3.38;;;;;;;34.10;nan;63739.00;5031847;28;20174;-61
2023/07/07 10:42:30;;;;;;;5.30;3.53;;;;;;;34.00;nan;63669.03;5032311;28;20155;-61
2023/07/07 10:44:58;;;;;;;7.97;4.00;;;;;;;33.91;nan;63626.19;5031994;28;20170;-64
2023/07/07 10:47:34;;;;;;;5.45;3.67;;;;;;;34.32;nan;63805.81;5032108;28;20722;-64
2023/07/07 10:50:01;;;;;;;8.48;4.30;;;;;;;34.08;nan;63704.81;5031574;28;20289;-64
2023/07/07 10:52:30;;;;;;;5.43;3.78;;;;;;;34.30;nan;63792.91;5032055;28;20170;-63
2023/07/07 10:55:01;;;;;;;4.95;3.55;;;;;;;33.98;nan;63902.34;5032454;28;20189;-63
2023/07/07 10:57:38;;;;;;;5.15;3.55;;;;;;;34.31;nan;63794.66;5031954;28;20167;-62
2023/07/07 11:00:28;;;;;;;5.70;3.92;;;;;;;34.17;nan;63752.44;5032263;28;20167;-60
2023/07/07 11:02:54;;;;;;;7.45;3.95;;;;;;;34.35;nan;63745.59;5031717;28;20210;-63
2023/07/07 11:05:34;;;;;;;5.47;3.90;;;;;;;34.49;nan;63775.09;5031862;28;20178;-65
2023/07/07 11:08:38;;;;;;;5.13;3.60;;;;;;;34.19;nan;63737.66;5031963;28;20582;-64
2023/07/07 11:11:09;;;;;;;5.85;3.92;;;;;;;34.18;nan;63753.00;5031048;28;20229;-63
2023/07/07 11:13:34;;;;;;;6.13;4.43;;;;;;;34.17;nan;63763.06;5031861;28;20178;-61
2023/07/07 11:16:26;;;;;;;5.57;3.70;;;;;;;34.15;nan;63722.97;5031527;28;20242;-62
2023/07/07 11:18:57;;;;;;;7.72;4.50;;;;;;;34.05;nan;63727.91;5024512;28;20194;-64
2023/07/07 11:21:44;;;;;;;6.20;4.07;;;;;;;33.70;nan;63656.13;5031647;28;20186;-62
2023/07/07 11:24:17;;;;;;;5.43;3.75;;;;;;;33.70;nan;63668.81;5031753;28;20178;-63
2023/07/07 11:26:51;;;;;;;6.70;4.00;;;;;;;33.78;nan;63648.88;5031679;28;20232;-64
2023/07/07 11:29:44;;;;;;;6.40;4.07;;;;;;;34.30;nan;63766.34;5031626;28;20194;-63
2023/07/07 11:32:33;;;;;;;4.90;3.30;;;;;;;34.09;nan;63721.31;5031561;28;20197;-63
2023/07/07 11:35:11;;;;;;;5.72;3.55;;;;;;;34.45;nan;63752.44;5031708;28;20167;-61
2023/07/07 11:38:10;;;;;;;5.90;3.58;;;;;;;33.91;nan;63644.75;5031622;28;20181;-64
2023/07/07 11:40:54;;;;;;;4.75;3.70;;;;;;;34.01;nan;63805.53;5031745;28;20178;-64
2023/07/07 11:43:28;;;;;;;4.90;3.53;;;;;;;33.99;nan;63723.59;5031667;28;20182;-65
2023/07/07 11:46:26;;;;;;;7.28;3.75;;;;;;;34.04;nan;63742.66;5031547;28;20167;-63
2023/07/07 11:49:19;;;;;;;6.07;3.92;;;;;;;34.26;nan;63783.53;5029138;28;20220;-62
2023/07/07 11:51:59;;;;;;;4.85;3.58;;;;;;;34.24;nan;63855.53;5012359;28;20680;-64
2023/07/07 11:54:24;;;;;;;5.10;3.60;;;;;;;34.57;nan;63837.47;5031502;28;20248;-61
2023/07/07 11:57:08;;;;;;;5.47;3.60;;;;;;;34.30;nan;63735.06;5031227;28;20684;-62
2023/07/07 12:00:05;;;;;;;6.30;3.88;;;;;;;34.25;nan;63773.81;5031778;28;20233;-62
2023/07/07 12:02:36;;;;;;;5.10;3.40;;;;;;;34.17;nan;63922.31;5031298;28;20229;-63